createdAt,value
2023-04-15T00:01:06.237Z,99198.38
2023-04-15T00:03:35.029Z,99201.41
2023-04-15T00:06:02.603Z,99200.09
2023-04-15T00:08:30.457Z,99206.56
2023-04-15T00:10:59.677Z,99204.44
2023-04-15T00:13:26.646Z,99202.00
2023-04-15T00:15:53.604Z,99192.59
2023-04-15T00:18:20.593Z,99190.38
2023-04-15T00:20:48.095Z,99194.94
2023-04-15T00:23:15.079Z,99193.97
2023-04-15T00:25:42.105Z,99197.44
2023-04-15T00:28:09.670Z,99195.19
2023-04-15T00:30:36.719Z,99196.69
2023-04-15T00:33:04.067Z,99186.94
2023-04-15T00:35:34.615Z,99187.66
2023-04-15T00:38:01.663Z,99196.47
2023-04-15T00:40:28.597Z,99191.41
2023-04-15T00:42:55.618Z,99185.69
2023-04-15T00:45:22.701Z,99187.75
2023-04-15T00:47:51.579Z,99190.19
2023-04-15T00:50:18.688Z,99192.78
2023-04-15T00:52:45.913Z,99190.97
2023-04-15T00:55:13.136Z,99194.00
2023-04-15T00:57:41.250Z,99184.87
2023-04-15T01:00:09.665Z,99189.88
2023-04-15T01:02:37.107Z,99187.50
2023-04-15T01:05:05.030Z,99194.03
2023-04-15T01:07:32.626Z,99186.69
2023-04-15T01:10:00.090Z,99189.75
2023-04-15T01:12:28.355Z,99188.03
2023-04-15T01:14:56.938Z,99190.88
2023-04-15T01:17:25.463Z,99192.50
2023-04-15T01:19:53.174Z,99186.41
2023-04-15T01:22:20.166Z,99190.66
2023-04-15T01:25:18.596Z,99196.84
2023-04-15T01:27:45.826Z,99196.50
2023-04-15T01:30:12.914Z,99198.53
2023-04-15T01:32:39.940Z,99200.47
2023-04-15T01:35:07.957Z,99191.94
2023-04-15T01:37:35.125Z,99199.84
2023-04-15T01:40:02.313Z,99205.53
2023-04-15T01:42:29.438Z,99199.53
2023-04-15T01:44:56.589Z,99203.09
2023-04-15T01:47:23.644Z,99198.25
2023-04-15T01:49:50.668Z,99195.84
2023-04-15T01:52:17.734Z,99196.09
2023-04-15T01:54:44.783Z,99202.19
2023-04-15T01:57:11.871Z,99203.50
2023-04-15T01:59:38.885Z,99188.88
2023-04-15T02:02:05.905Z,99188.78
2023-04-15T02:04:32.993Z,99195.94
2023-04-15T02:07:00.180Z,99193.41
2023-04-15T02:09:27.246Z,99194.84
2023-04-15T02:11:54.515Z,99198.03
2023-04-15T02:14:21.733Z,99197.19
2023-04-15T02:16:48.910Z,99189.47
2023-04-15T02:19:15.916Z,99198.66
2023-04-15T02:21:42.985Z,99202.50
2023-04-15T02:24:10.038Z,99190.59
2023-04-15T02:26:37.069Z,99198.84
2023-04-15T02:29:04.389Z,99198.59
2023-04-15T02:31:34.304Z,99199.97
2023-04-15T02:34:03.285Z,99202.28
2023-04-15T02:36:32.008Z,99198.94
2023-04-15T02:38:59.313Z,99197.44
2023-04-15T02:41:28.771Z,99205.25
2023-04-15T02:43:56.121Z,99192.63
2023-04-15T02:46:23.436Z,99206.31
2023-04-15T02:48:50.929Z,99194.47
2023-04-15T02:51:20.953Z,99196.88
2023-04-15T02:53:49.221Z,99202.72
2023-04-15T02:56:17.535Z,99201.50
2023-04-15T02:58:45.956Z,99196.59
2023-04-15T03:01:13.076Z,99200.44
2023-04-15T03:03:40.198Z,99194.34
2023-04-15T03:06:07.173Z,99207.47
2023-04-15T03:08:34.174Z,99198.19
2023-04-15T03:11:02.928Z,99191.81
2023-04-15T03:13:29.937Z,99185.34
2023-04-15T03:15:57.030Z,99189.09
2023-04-15T03:18:24.030Z,99189.94
2023-04-15T03:20:51.097Z,99191.88
2023-04-15T03:23:18.083Z,99204.09
2023-04-15T03:25:45.634Z,99197.69
2023-04-15T03:28:12.864Z,99193.41
2023-04-15T03:30:39.956Z,99195.28
2023-04-15T03:33:07.242Z,99187.44
2023-04-15T03:35:34.682Z,99192.16
2023-04-15T03:38:01.704Z,99194.13
2023-04-15T03:40:28.706Z,99200.28
2023-04-15T03:42:56.011Z,99199.53
2023-04-15T03:45:22.952Z,99205.41
2023-04-15T03:47:50.152Z,99204.22
2023-04-15T03:50:17.272Z,99209.75
2023-04-15T03:52:45.092Z,99208.06
2023-04-15T03:55:12.199Z,99208.53
2023-04-15T03:57:39.976Z,99206.00
2023-04-15T04:00:09.528Z,99207.31
2023-04-15T04:02:37.020Z,99207.53
2023-04-15T04:05:04.693Z,99206.19
2023-04-15T04:07:32.612Z,99202.41
2023-04-15T04:09:59.633Z,99210.59
2023-04-15T04:12:26.628Z,99204.12
2023-04-15T05:08:47.330Z,99218.47
2023-04-15T05:11:14.308Z,99220.75
2023-04-15T05:13:41.447Z,99227.84
2023-04-15T05:16:08.696Z,99225.75
2023-04-15T05:18:35.901Z,99226.03
2023-04-15T05:21:03.373Z,99230.69
2023-04-15T05:23:30.524Z,99233.44
2023-04-15T05:25:57.561Z,99220.00
2023-04-15T05:28:24.481Z,99231.66
2023-04-15T05:30:51.626Z,99230.50
2023-04-15T05:33:19.384Z,99226.84
2023-04-15T05:35:46.591Z,99233.94
2023-04-15T05:38:13.566Z,99235.31
2023-04-15T05:40:40.935Z,99238.47
2023-04-15T05:43:08.066Z,99239.91
2023-04-15T05:45:35.015Z,99240.75
2023-04-15T05:48:02.154Z,99242.09
2023-04-15T05:50:29.258Z,99244.22
2023-04-15T05:52:56.389Z,99243.16
2023-04-15T05:55:23.418Z,99246.94
2023-04-15T05:57:50.443Z,99253.37
2023-04-15T06:00:17.606Z,99249.94
2023-04-15T06:02:44.970Z,99246.03
2023-04-15T06:05:12.295Z,99255.78
2023-04-15T06:07:39.460Z,99259.13
2023-04-15T06:10:07.640Z,99260.56
2023-04-15T06:12:34.716Z,99265.47
2023-04-15T06:15:01.899Z,99263.72
2023-04-15T06:17:28.932Z,99266.44
2023-04-15T06:19:56.417Z,99268.28
2023-04-15T06:22:24.151Z,99267.78
2023-04-15T06:24:51.916Z,99264.91
2023-04-15T06:27:19.413Z,99273.03
2023-04-15T06:29:46.565Z,99267.78
2023-04-15T06:32:13.668Z,99270.41
2023-04-15T06:34:40.979Z,99270.91
2023-04-15T06:37:08.173Z,99272.09
2023-04-15T06:39:35.276Z,99282.28
2023-04-15T06:42:03.676Z,99287.66
2023-04-15T06:44:33.271Z,99285.50
2023-04-15T06:47:00.895Z,99278.91
2023-04-15T06:49:28.323Z,99281.53
2023-04-15T06:51:55.327Z,99280.62
2023-04-15T06:54:22.762Z,99286.84
2023-04-15T06:56:50.255Z,99291.19
2023-04-15T06:59:17.426Z,99290.34
2023-04-15T07:01:44.394Z,99296.88
2023-04-15T07:04:12.609Z,99308.25
2023-04-15T07:06:39.924Z,99303.75
2023-04-15T07:09:06.867Z,99302.22
2023-04-15T07:11:34.158Z,99294.59
2023-04-15T07:14:01.163Z,99301.91
2023-04-15T07:16:29.766Z,99306.22
2023-04-15T07:18:57.510Z,99300.59
2023-04-15T07:21:25.462Z,99313.50
2023-04-15T07:23:52.714Z,99313.09
2023-04-15T07:26:19.708Z,99307.84
2023-04-15T07:28:47.750Z,99311.09
2023-04-15T07:31:15.285Z,99315.37
2023-04-15T07:33:42.360Z,99312.31
2023-04-15T07:36:09.752Z,99314.81
2023-04-15T07:38:36.754Z,99330.53
2023-04-15T07:41:04.441Z,99324.81
2023-04-15T07:43:31.462Z,99331.81
2023-04-15T07:45:58.516Z,99338.50
2023-04-15T07:48:25.999Z,99338.09
2023-04-15T07:50:53.111Z,99341.94
2023-04-15T07:53:20.653Z,99344.28
2023-04-15T07:55:47.626Z,99338.69
2023-04-15T07:58:14.597Z,99342.59
2023-04-15T08:00:41.884Z,99346.16
2023-04-15T08:03:08.959Z,99348.62
2023-04-15T08:05:36.111Z,99357.09
2023-04-15T08:08:03.256Z,99351.72
2023-04-15T08:10:30.954Z,99359.34
2023-04-15T08:12:57.998Z,99356.66
2023-04-15T08:15:26.147Z,99361.88
2023-04-15T08:17:53.274Z,99361.44
2023-04-15T08:20:20.920Z,99361.22
2023-04-15T08:22:52.258Z,99365.03
2023-04-15T08:25:20.317Z,99365.28
2023-04-15T08:27:47.617Z,99364.88
2023-04-15T08:30:14.891Z,99367.31
2023-04-15T08:32:51.518Z,99374.84
2023-04-15T08:35:18.580Z,99366.91
2023-04-15T08:37:45.551Z,99364.28
2023-04-15T08:40:13.091Z,99369.97
2023-04-15T08:42:49.341Z,99372.94
2023-04-15T08:45:18.432Z,99378.00
2023-04-15T08:47:48.076Z,99384.19
2023-04-15T08:50:15.581Z,99379.91
2023-04-15T08:52:42.913Z,99387.28
2023-04-15T08:55:11.990Z,99384.22
2023-04-15T08:57:40.138Z,99390.47
2023-04-15T09:00:07.817Z,99390.44
2023-04-15T09:02:34.978Z,99385.41
2023-04-15T09:05:05.225Z,99393.66
2023-04-15T09:07:35.040Z,99389.84
2023-04-15T09:10:01.969Z,99397.28
2023-04-15T09:12:29.022Z,99397.75
2023-04-15T09:14:56.094Z,99406.09
2023-04-15T09:17:23.151Z,99401.63
2023-04-15T09:19:50.239Z,99409.81
2023-04-15T09:22:17.566Z,99404.63
2023-04-15T09:24:44.572Z,99416.13
2023-04-15T09:27:11.701Z,99413.22
2023-04-15T09:29:38.709Z,99413.44
2023-04-15T09:32:17.254Z,99414.28
2023-04-15T09:34:44.799Z,99418.22
2023-04-15T09:37:24.553Z,99416.22
2023-04-15T09:39:58.563Z,99417.84
2023-04-15T09:42:27.082Z,99416.91
2023-04-15T09:44:54.329Z,99422.16
2023-04-15T09:47:31.811Z,99410.69
2023-04-15T09:50:00.139Z,99422.31
2023-04-15T09:52:27.623Z,99412.41
2023-04-15T09:54:56.938Z,99409.88
2023-04-15T09:57:26.739Z,99415.41
2023-04-15T09:59:53.630Z,99416.25
2023-04-15T10:02:24.545Z,99413.69
2023-04-15T10:04:52.935Z,99415.84
2023-04-15T10:07:22.598Z,99413.81
2023-04-15T10:09:49.930Z,99428.38
2023-04-15T10:12:18.910Z,99418.28
2023-04-15T10:14:53.124Z,99412.28
2023-04-15T10:17:23.857Z,99420.84
2023-04-15T10:19:54.787Z,99421.81
2023-04-15T10:22:23.568Z,99413.34
2023-04-15T10:24:51.869Z,99417.09
2023-04-15T10:27:19.625Z,99422.22
2023-04-15T10:29:48.157Z,99423.44
2023-04-15T10:32:16.338Z,99411.88
2023-04-15T10:34:43.933Z,99415.13
2023-04-15T10:37:13.497Z,99408.38
2023-04-15T10:39:43.460Z,99409.53
2023-04-15T10:42:15.801Z,99418.44
2023-04-15T10:44:45.618Z,99413.34
2023-04-15T10:47:21.806Z,99410.69
2023-04-15T10:49:53.393Z,99409.06
2023-04-15T10:52:26.124Z,99407.37
2023-04-15T10:55:04.756Z,99409.72
2023-04-15T10:57:38.017Z,99416.13
2023-04-15T11:00:13.171Z,99414.97
2023-04-15T11:02:42.617Z,99419.16
2023-04-15T11:05:12.964Z,99425.00
2023-04-15T11:07:47.345Z,99424.34
2023-04-15T11:10:34.149Z,99430.47
2023-04-15T11:13:15.054Z,99423.19
2023-04-15T11:15:47.254Z,99420.13
2023-04-15T11:18:22.414Z,99424.81
2023-04-15T11:21:09.688Z,99417.56
2023-04-15T11:23:41.452Z,99417.50
2023-04-15T11:26:10.429Z,99418.06
2023-04-15T11:28:39.221Z,99413.25
2023-04-15T11:31:11.614Z,99410.12
2023-04-15T11:33:46.104Z,99409.44
2023-04-15T11:36:13.152Z,99419.34
2023-04-15T11:38:43.905Z,99416.69
2023-04-15T11:41:11.708Z,99424.94
2023-04-15T11:43:38.637Z,99428.44
2023-04-15T11:46:05.966Z,99435.34
2023-04-15T11:48:35.205Z,99434.66
2023-04-15T11:51:05.057Z,99435.31
2023-04-15T11:53:49.732Z,99431.41
2023-04-15T11:56:23.662Z,99440.22
2023-04-15T11:58:57.318Z,99442.81
2023-04-15T12:01:39.654Z,99444.47
2023-04-15T12:04:14.375Z,99442.16
2023-04-15T12:06:41.901Z,99450.63
2023-04-15T12:09:17.023Z,99448.50
2023-04-15T12:11:50.150Z,99457.66
2023-04-15T12:14:28.670Z,99460.25
2023-04-15T12:17:01.665Z,99456.06
2023-04-15T12:19:37.473Z,99465.19
2023-04-15T12:22:06.851Z,99459.16
2023-04-15T12:24:35.091Z,99458.78
2023-04-15T12:27:05.065Z,99462.22
2023-04-15T12:29:33.136Z,99459.47
2023-04-15T12:32:06.738Z,99465.28
2023-04-15T12:34:36.150Z,99464.59
2023-04-15T12:37:05.428Z,99461.69
2023-04-15T12:39:36.213Z,99461.75
2023-04-15T12:42:04.677Z,99463.19
2023-04-15T12:44:33.510Z,99460.81
2023-04-15T12:47:00.619Z,99460.75
2023-04-15T12:49:28.279Z,99464.31
2023-04-15T12:52:02.323Z,99460.28
2023-04-15T12:54:30.569Z,99461.03
2023-04-15T12:56:58.606Z,99462.50
2023-04-15T12:59:26.083Z,99463.94
2023-04-15T13:01:54.330Z,99457.28
2023-04-15T13:04:22.406Z,99458.84
2023-04-15T13:06:49.808Z,99465.31
2023-04-15T13:09:17.019Z,99460.56
2023-04-15T13:11:44.487Z,99463.88
2023-04-15T13:14:13.368Z,99464.44
2023-04-15T13:16:40.557Z,99467.47
2023-04-15T13:19:07.954Z,99472.88
2023-04-15T13:21:36.232Z,99471.41
2023-04-15T13:24:05.110Z,99470.41
2023-04-15T13:26:32.426Z,99470.13
2023-04-15T13:29:00.105Z,99477.56
2023-04-15T13:31:27.461Z,99480.91
2023-04-15T13:33:54.618Z,99483.72
2023-04-15T13:36:21.756Z,99485.75
2023-04-15T13:38:51.249Z,99482.91
2023-04-15T13:41:18.563Z,99481.16
2023-04-15T13:43:45.986Z,99485.78
2023-04-15T13:46:13.149Z,99485.00
2023-04-15T13:48:40.511Z,99487.91
2023-04-15T13:51:07.525Z,99489.06
2023-04-15T13:53:38.556Z,99494.00
2023-04-15T13:56:10.601Z,99484.72
2023-04-15T13:58:38.546Z,99493.00
2023-04-15T14:01:07.306Z,99493.38
2023-04-15T14:03:38.324Z,99501.69
2023-04-15T14:06:06.430Z,99500.84
2023-04-15T14:08:34.210Z,99496.09
2023-04-15T14:11:01.630Z,99498.72
2023-04-15T14:13:28.668Z,99500.63
2023-04-15T14:15:57.171Z,99503.88
2023-04-15T14:18:24.361Z,99506.50
2023-04-15T14:20:51.432Z,99520.78
2023-04-15T14:23:18.372Z,99515.69
2023-04-15T14:25:47.948Z,99520.44
2023-04-15T14:28:16.067Z,99520.00
2023-04-15T14:30:43.250Z,99518.00
2023-04-15T14:33:10.306Z,99521.66
2023-04-15T14:35:38.220Z,99528.75
2023-04-15T14:38:06.390Z,99534.16
2023-04-15T14:40:34.305Z,99545.53
2023-04-15T14:43:01.242Z,99535.34
2023-04-15T14:45:28.325Z,99542.53
2023-04-15T14:47:55.547Z,99547.22
2023-04-15T14:50:22.748Z,99557.69
2023-04-15T14:52:49.752Z,99555.78
2023-04-15T14:55:16.724Z,99549.19
2023-04-15T14:57:43.731Z,99564.06
2023-04-15T15:00:13.858Z,99556.03
2023-04-15T15:02:42.635Z,99554.25
2023-04-15T15:05:11.057Z,99560.78
2023-04-15T15:07:39.652Z,99559.84
2023-04-15T15:10:07.724Z,99558.28
2023-04-15T15:12:34.889Z,99558.56
2023-04-15T15:15:12.371Z,99560.28
2023-04-15T15:17:46.756Z,99563.03
2023-04-15T15:20:13.874Z,99565.69
2023-04-15T15:22:40.930Z,99574.22
2023-04-15T15:25:08.077Z,99570.78
2023-04-15T15:27:37.079Z,99573.31
2023-04-15T15:30:07.048Z,99580.91
2023-04-15T15:32:34.162Z,99583.50
2023-04-15T15:35:01.186Z,99580.78
2023-04-15T15:37:28.149Z,99584.41
2023-04-15T15:39:55.250Z,99590.16
2023-04-15T15:42:26.019Z,99597.41
2023-04-15T15:44:55.730Z,99597.41
2023-04-15T15:47:22.591Z,99600.56
2023-04-15T15:49:49.739Z,99602.41
2023-04-15T15:52:16.772Z,99607.44
2023-04-15T15:54:43.704Z,99600.50
2023-04-15T15:57:11.450Z,99613.09
2023-04-15T15:59:44.157Z,99610.31
2023-04-15T16:02:12.460Z,99611.53
2023-04-15T16:04:39.765Z,99619.03
2023-04-15T16:07:07.339Z,99618.66
2023-04-15T16:09:34.761Z,99619.69
2023-04-15T16:12:02.431Z,99622.88
2023-04-15T16:14:29.461Z,99616.53
2023-04-15T16:16:56.706Z,99621.78
2023-04-15T16:19:23.793Z,99624.66
2023-04-15T16:21:51.373Z,99626.72
2023-04-15T16:24:18.362Z,99617.88
2023-04-15T16:26:45.388Z,99622.13
2023-04-15T16:29:12.423Z,99622.16
2023-04-15T16:31:40.375Z,99627.94
2023-04-15T16:34:07.410Z,99623.84
2023-04-15T16:36:36.230Z,99625.59
2023-04-15T16:39:03.512Z,99628.94
2023-04-15T16:41:32.608Z,99632.69
2023-04-15T16:44:02.213Z,99637.34
2023-04-15T16:46:30.005Z,99639.28
2023-04-15T16:48:57.213Z,99647.06
2023-04-15T16:51:24.384Z,99650.84
2023-04-15T16:53:51.529Z,99648.44
2023-04-15T16:56:19.965Z,99647.38
2023-04-15T16:58:47.113Z,99649.84
2023-04-15T17:01:14.252Z,99656.22
2023-04-15T17:03:41.505Z,99654.41
2023-04-15T17:06:08.697Z,99659.41
2023-04-15T17:08:35.790Z,99666.37
2023-04-15T17:11:02.845Z,99666.56
2023-04-15T17:13:30.067Z,99668.50
2023-04-15T17:15:57.102Z,99668.72
2023-04-15T17:18:24.227Z,99665.84
2023-04-15T17:20:51.410Z,99676.72
2023-04-15T17:23:18.389Z,99678.19
2023-04-15T17:25:45.560Z,99687.19
2023-04-15T17:28:12.685Z,99685.19
2023-04-15T17:30:40.070Z,99693.31
2023-04-15T17:33:53.481Z,99690.56
2023-04-15T17:35:54.304Z,99695.09
2023-04-15T17:38:21.461Z,99688.09
2023-04-15T17:40:48.497Z,99697.88
2023-04-15T17:43:15.735Z,99701.44
2023-04-15T17:45:43.572Z,99713.66
2023-04-15T17:48:10.727Z,99719.34
2023-04-15T17:50:38.848Z,99717.34
2023-04-15T17:53:05.998Z,99720.81
2023-04-15T17:55:33.392Z,99735.59
2023-04-15T17:58:01.122Z,99737.69
2023-04-15T18:00:28.162Z,99741.31
2023-04-15T18:02:55.435Z,99742.13
2023-04-15T18:05:22.727Z,99742.97
2023-04-15T18:07:52.555Z,99748.63
2023-04-15T18:10:20.831Z,99753.75
2023-04-15T18:12:48.358Z,99754.19
2023-04-15T18:15:15.551Z,99770.81
2023-04-15T18:17:42.925Z,99776.97
2023-04-15T18:20:10.318Z,99775.47
2023-04-15T18:22:37.334Z,99787.25
2023-04-15T18:25:04.880Z,99782.94
2023-04-15T18:27:35.728Z,99786.59
2023-04-15T18:30:02.776Z,99791.56
2023-04-15T18:32:33.012Z,99796.22
2023-04-15T18:35:00.193Z,99800.28
2023-04-15T18:37:29.582Z,99807.59
2023-04-15T18:39:57.020Z,99826.16
2023-04-15T18:42:24.819Z,99824.00
2023-04-15T18:44:53.495Z,99830.47
2023-04-15T18:47:20.898Z,99818.66
2023-04-15T18:49:47.961Z,99831.69
2023-04-15T18:52:14.924Z,99837.25
2023-04-15T18:54:41.930Z,99839.91
2023-04-15T18:57:09.157Z,99846.41
2023-04-15T18:59:36.540Z,99848.75
2023-04-15T19:02:06.683Z,99851.56
2023-04-15T19:04:34.164Z,99849.37
2023-04-15T19:07:02.291Z,99859.72
2023-04-15T19:09:29.571Z,99868.19
2023-04-15T19:11:57.184Z,99869.41
2023-04-15T19:14:24.626Z,99870.97
2023-04-15T19:16:51.896Z,99878.75
2023-04-15T19:19:19.450Z,99880.59
2023-04-15T19:21:50.419Z,99885.63
2023-04-15T19:24:18.425Z,99893.31
2023-04-15T19:26:48.517Z,99885.81
2023-04-15T19:29:18.067Z,99890.41
2023-04-15T19:31:45.392Z,99902.75
2023-04-15T19:34:12.453Z,99892.97
2023-04-15T19:36:39.541Z,99895.03
2023-04-15T19:39:06.883Z,99897.50
2023-04-15T19:41:34.080Z,99897.31
2023-04-15T19:44:01.190Z,99900.19
2023-04-15T19:46:28.282Z,99899.41
2023-04-15T19:48:55.859Z,99899.31
2023-04-15T19:51:22.913Z,99894.97
2023-04-15T19:53:51.204Z,99897.91
2023-04-15T19:56:18.259Z,99903.00
2023-04-15T19:58:47.131Z,99896.91
2023-04-15T20:01:14.199Z,99901.09
2023-04-15T20:03:41.298Z,99906.31
2023-04-15T20:06:08.486Z,99909.37
2023-04-15T20:08:35.573Z,99917.13
2023-04-15T20:11:02.660Z,99909.28
2023-04-15T20:13:29.688Z,99917.72
2023-04-15T20:15:56.772Z,99914.69
2023-04-15T20:18:23.802Z,99908.97
2023-04-15T20:20:51.076Z,99910.66
2023-04-15T20:23:18.045Z,99909.87
2023-04-15T20:25:45.335Z,99910.47
2023-04-15T20:28:12.568Z,99915.22
2023-04-15T20:30:39.887Z,99914.53
2023-04-15T20:33:08.294Z,99916.09
2023-04-15T20:35:35.394Z,99912.06
2023-04-15T20:38:06.013Z,99918.03
2023-04-15T20:40:35.654Z,99917.66
2023-04-15T20:43:02.653Z,99918.28
2023-04-15T20:45:29.738Z,99923.28
2023-04-15T20:47:56.830Z,99936.22
2023-04-15T20:50:23.849Z,99927.22
2023-04-15T20:52:50.812Z,99937.16
2023-04-15T20:55:17.920Z,99937.56
2023-04-15T20:57:44.902Z,99929.56
2023-04-15T21:00:12.481Z,99942.66
2023-04-15T21:02:39.669Z,99940.47
2023-04-15T21:05:06.955Z,99940.41
2023-04-15T21:07:33.977Z,99939.84
2023-04-15T21:10:00.978Z,99936.97
2023-04-15T21:12:27.933Z,99930.81
2023-04-15T21:14:55.003Z,99928.09
2023-04-15T21:17:22.081Z,99931.84
2023-04-15T21:19:49.231Z,99939.47
2023-04-15T21:22:16.370Z,99934.06
2023-04-15T21:24:43.390Z,99934.94
2023-04-15T21:27:10.427Z,99931.84
2023-04-15T21:29:40.476Z,99935.09
2023-04-15T21:32:07.671Z,99937.41
2023-04-15T21:34:35.030Z,99937.88
2023-04-15T21:37:02.326Z,99941.31
2023-04-15T21:39:29.321Z,99934.91
2023-04-15T21:41:58.101Z,99943.53
2023-04-15T21:44:25.378Z,99937.41
2023-04-15T21:46:52.431Z,99936.50
2023-04-15T21:49:20.674Z,99933.66
2023-04-15T21:51:48.274Z,99931.78
2023-04-15T21:54:15.381Z,99928.22
2023-04-15T21:56:43.414Z,99931.09
2023-04-15T21:59:10.647Z,99936.75
2023-04-15T22:01:37.765Z,99931.28
2023-04-15T22:04:06.221Z,99932.84
2023-04-15T22:06:33.350Z,99937.69
2023-04-15T22:09:00.436Z,99943.72
2023-04-15T22:11:28.517Z,99941.81
2023-04-15T22:13:57.566Z,99941.50
2023-04-15T22:16:28.896Z,99943.00
2023-04-15T22:18:56.224Z,99949.06
2023-04-15T22:21:23.818Z,99953.38
2023-04-15T22:23:51.644Z,99958.72
2023-04-15T22:26:18.642Z,99959.56
2023-04-15T22:28:45.952Z,99966.62
2023-04-15T22:31:13.898Z,99970.31
2023-04-15T22:33:40.947Z,99980.75
2023-04-15T22:36:08.058Z,99987.16
2023-04-15T22:38:35.116Z,99983.47
2023-04-15T22:41:02.151Z,99984.19
2023-04-15T22:43:29.122Z,99978.97
2023-04-15T22:45:56.950Z,99982.78
2023-04-15T22:48:24.130Z,99981.31
2023-04-15T22:50:51.257Z,99990.12
2023-04-15T22:53:18.657Z,100005.44
2023-04-15T22:55:47.305Z,100005.38
2023-04-15T22:58:15.217Z,100006.19
2023-04-15T23:00:42.387Z,100002.78
2023-04-15T23:03:09.612Z,100005.22
2023-04-15T23:05:37.198Z,100001.75
2023-04-15T23:08:04.221Z,100009.78
2023-04-15T23:10:31.261Z,100011.56
2023-04-15T23:12:58.305Z,100010.25
2023-04-15T23:15:37.366Z,100016.25
2023-04-15T23:18:04.467Z,100019.81
2023-04-15T23:20:31.967Z,100023.34
2023-04-15T23:22:59.005Z,100023.19
2023-04-15T23:25:26.370Z,100013.37
2023-04-15T23:27:53.451Z,100018.69
2023-04-15T23:30:20.677Z,100025.28
2023-04-15T23:32:47.732Z,100025.19
2023-04-15T23:35:15.016Z,100019.84
2023-04-15T23:37:42.042Z,100018.03
2023-04-15T23:40:09.543Z,100027.81
2023-04-15T23:42:36.565Z,100027.09
2023-04-15T23:45:03.631Z,100029.41
2023-04-15T23:47:30.696Z,100035.38
2023-04-15T23:49:57.813Z,100029.12
2023-04-15T23:52:24.977Z,100035.19
2023-04-15T23:54:52.065Z,100041.25
2023-04-15T23:57:19.187Z,100041.50
2023-04-15T23:59:46.479Z,100043.31
